Accueil
Images satellite Prévisions 15 joursClimatMétéo marine Cyclones Foudre AéroportsFAQ Actualités A propos
Météo : Europe Afrique Amérique du Nord Amérique du Sud Asie Australie-Océanie Autres
Langues Contact

Bergerac, France

Roumanière

latitude: 44-49N, longitude: 000-31E, altitude: 51 m


METAR: LFBE 301700Z AUTO 11002KT 9999 NSC 17/09 Q1021
TAF: LFBE 301400Z 3015/3024 12007KT CAVOK

Heure: 18:26 (17:26 UTC)

Observation

Le bulletin a été fait il y a 26 minutes, à 17:00 UTC
Vent 2 kt de est/sud-est
Température 17°C
Humidité 59%
Pression 1021 hPa
Visibilité 10 km ou plus

Changer d'unités

Prévision

Le bulletin a été fait il y a 3 heures et 26 minutes, à 14:00 UTC
Prévision valable du 30 à 15 UTC au 30 à 24 UTC
Vent 7 kt de est/sud-est
Visibilité 10 km ou plus
pas de nuages en-dessous de 1500 mètres et pas de cumulonimbus.
Les informations qui figurent sur ce site font l'objet d'une clause de non-responsabilité
Météo : Europe Afrique Amérique du Nord Amérique du Sud Asie Australie-Océanie Autres
Images satellite Prévisions 15 joursClimatMétéo marine Cyclones Foudre AéroportsFAQ Langues Contact Actualités A propos